createdAt,value
2018-12-14T00:01:23.127Z,57.60
2018-12-14T00:03:52.089Z,65.03
2018-12-14T00:06:20.986Z,58.57
2018-12-14T00:08:49.972Z,51.83
2018-12-14T00:11:19.053Z,40.80
2018-12-14T00:13:48.162Z,34.10
2018-12-14T00:16:17.073Z,27.87
2018-12-14T00:18:46.049Z,25.63
2018-12-14T00:21:15.056Z,22.77
2018-12-14T00:23:43.969Z,22.83
2018-12-14T00:26:13.025Z,25.23
2018-12-14T00:28:42.433Z,23.93
2018-12-14T00:31:11.435Z,24.90
2018-12-14T00:33:40.438Z,24.50
2018-12-14T00:36:09.347Z,26.63
2018-12-14T00:38:38.257Z,24.27
2018-12-14T00:41:07.459Z,22.47
2018-12-14T00:43:36.393Z,31.23
2018-12-14T00:46:05.324Z,43.23
2018-12-14T00:48:34.455Z,38.50
2018-12-14T00:51:03.360Z,32.80
2018-12-14T00:53:32.254Z,32.70
2018-12-14T00:56:01.142Z,30.63
2018-12-14T00:58:29.969Z,30.37
2018-12-14T01:00:58.800Z,31.50
2018-12-14T01:03:27.811Z,31.40
2018-12-14T01:05:56.611Z,31.47
2018-12-14T01:08:25.516Z,33.17
2018-12-14T01:10:54.431Z,31.33
2018-12-14T01:13:23.461Z,33.17
2018-12-14T01:15:52.259Z,32.33
2018-12-14T01:18:21.217Z,30.33
2018-12-14T01:20:50.185Z,32.43
2018-12-14T01:23:19.125Z,33.97
2018-12-14T01:25:48.017Z,32.63
2018-12-14T01:28:17.317Z,32.97
2018-12-14T01:30:46.325Z,32.10
2018-12-14T01:33:15.245Z,32.20
2018-12-14T01:35:44.135Z,32.03
2018-12-14T01:38:13.125Z,33.27
2018-12-14T01:40:42.020Z,33.47
2018-12-14T01:43:10.928Z,31.10
2018-12-14T01:45:39.953Z,30.93
2018-12-14T01:48:08.792Z,31.37
2018-12-14T01:50:37.907Z,28.47
2018-12-14T01:53:06.924Z,27.10
2018-12-14T01:55:36.321Z,29.83
2018-12-14T01:58:05.346Z,32.83
2018-12-14T02:00:34.316Z,31.80
2018-12-14T02:03:03.393Z,33.33
2018-12-14T02:05:32.500Z,32.03
2018-12-14T02:08:01.453Z,29.50
2018-12-14T02:10:30.395Z,28.30
2018-12-14T02:12:59.325Z,27.00
2018-12-14T02:15:28.236Z,26.33
2018-12-14T02:17:57.141Z,27.63
2018-12-14T02:20:26.039Z,31.27
2018-12-14T02:22:54.950Z,31.10
2018-12-14T02:25:23.869Z,30.43
2018-12-14T02:27:52.750Z,29.57
2018-12-14T02:30:46.150Z,30.27
2018-12-14T02:33:14.941Z,28.13
2018-12-14T02:35:43.975Z,29.30
2018-12-14T02:38:13.351Z,28.37
2018-12-14T02:40:42.408Z,31.27
2018-12-14T02:43:11.400Z,31.37
2018-12-14T02:45:40.402Z,31.23
2018-12-14T02:48:09.224Z,30.93
2018-12-14T02:50:38.139Z,31.47
2018-12-14T02:53:07.066Z,32.80
2018-12-14T02:55:35.994Z,32.70
2018-12-14T02:58:04.916Z,32.17
2018-12-14T03:00:33.857Z,32.00
2018-12-14T03:03:02.775Z,30.23
2018-12-14T03:05:31.760Z,29.10
2018-12-14T03:08:00.667Z,28.37
2018-12-14T03:13:05.645Z,29.70
2018-12-14T03:15:35.170Z,28.70
2018-12-14T03:18:04.184Z,29.07
2018-12-14T03:20:33.003Z,26.53
2018-12-14T03:23:01.898Z,26.00
2018-12-14T03:25:30.926Z,26.47
2018-12-14T03:27:59.849Z,27.30
2018-12-14T03:30:28.747Z,30.30
2018-12-14T03:32:57.782Z,30.37
2018-12-14T03:35:26.810Z,31.90
2018-12-14T03:37:55.730Z,32.20
2018-12-14T03:40:24.652Z,30.37
2018-12-14T03:42:53.544Z,28.93
2018-12-14T03:45:22.447Z,28.63
2018-12-14T03:47:51.325Z,28.63
2018-12-14T03:50:20.204Z,28.70
2018-12-14T03:52:49.225Z,29.83
2018-12-14T03:55:18.162Z,28.87
2018-12-14T03:57:47.069Z,29.60
2018-12-14T04:00:16.754Z,28.13
2018-12-14T04:02:45.881Z,29.33
2018-12-14T04:05:14.923Z,29.43
2018-12-14T04:07:43.927Z,27.80
2018-12-14T04:10:12.862Z,27.07
2018-12-14T04:12:42.207Z,30.60
2018-12-14T04:15:11.580Z,27.37
2018-12-14T04:17:40.677Z,29.00
2018-12-14T04:20:09.677Z,28.27
2018-12-14T04:22:38.569Z,27.47
2018-12-14T04:25:07.629Z,29.17
2018-12-14T04:27:36.606Z,30.27
2018-12-14T04:30:06.300Z,25.80
2018-12-14T04:32:35.191Z,26.00
2018-12-14T04:35:04.680Z,26.33
2018-12-14T04:37:33.573Z,24.93
2018-12-14T04:40:03.028Z,24.23
2018-12-14T04:42:32.485Z,22.00
2018-12-14T04:45:01.388Z,22.07
2018-12-14T04:47:30.443Z,20.77
2018-12-14T04:49:59.352Z,21.23
2018-12-14T04:52:28.348Z,21.60
2018-12-14T04:54:57.131Z,23.07
2018-12-14T04:57:26.062Z,21.57
2018-12-14T04:59:55.060Z,23.13
2018-12-14T05:02:23.949Z,23.77
2018-12-14T05:04:53.189Z,25.07
2018-12-14T05:07:22.121Z,26.53
2018-12-14T05:09:51.041Z,27.57
2018-12-14T05:12:20.027Z,28.37
2018-12-14T05:14:49.283Z,28.63
2018-12-14T05:17:18.347Z,29.93
2018-12-14T05:19:47.352Z,25.33
2018-12-14T05:22:16.156Z,25.43
2018-12-14T05:24:45.040Z,25.50
2018-12-14T05:27:14.093Z,28.23
2018-12-14T05:29:43.502Z,26.40
2018-12-14T05:32:12.497Z,27.00
2018-12-14T05:34:41.493Z,26.57
2018-12-14T05:37:10.292Z,29.70
2018-12-14T05:39:39.193Z,47.73
2018-12-14T05:42:09.253Z,85.50
2018-12-14T05:44:38.157Z,59.87
2018-12-14T05:47:07.046Z,34.20
2018-12-14T05:49:36.093Z,26.77
2018-12-14T05:52:04.930Z,26.60
2018-12-14T05:54:33.827Z,26.43
2018-12-14T05:57:02.832Z,29.63
2018-12-14T05:59:31.909Z,25.27
2018-12-14T06:02:00.820Z,27.47
2018-12-14T06:04:29.725Z,27.20
2018-12-14T06:06:58.709Z,28.60
2018-12-14T06:09:27.544Z,29.37
2018-12-14T06:11:56.469Z,31.90
2018-12-14T06:14:25.596Z,43.53
2018-12-14T06:16:54.530Z,45.83
2018-12-14T06:19:23.439Z,47.37
2018-12-14T06:21:52.533Z,49.43
2018-12-14T06:24:21.426Z,48.20
2018-12-14T06:26:50.347Z,66.87
2018-12-14T06:29:19.287Z,55.37
2018-12-14T06:31:48.191Z,60.13
2018-12-14T06:34:17.085Z,40.23
2018-12-14T06:36:45.956Z,39.47
2018-12-14T06:39:15.030Z,38.07
2018-12-14T06:41:44.288Z,38.47
2018-12-14T06:44:13.089Z,37.90
2018-12-14T06:46:41.996Z,38.57
2018-12-14T06:49:10.913Z,38.60
2018-12-14T06:51:39.963Z,40.23
2018-12-14T06:54:09.456Z,39.87
2018-12-14T06:56:38.258Z,43.80
2018-12-14T06:59:07.053Z,46.23
2018-12-14T07:01:35.939Z,43.70
2018-12-14T07:04:04.882Z,50.30
2018-12-14T07:06:33.784Z,44.93
2018-12-14T07:09:04.510Z,39.20
2018-12-14T07:11:33.560Z,37.47
2018-12-14T07:14:03.622Z,36.80
2018-12-14T07:16:32.781Z,36.60
2018-12-14T07:19:01.693Z,37.43
2018-12-14T07:21:30.589Z,41.03
2018-12-14T07:23:59.520Z,37.63
2018-12-14T07:26:28.690Z,40.93
2018-12-14T07:28:57.729Z,38.13
2018-12-14T07:31:26.632Z,38.67
2018-12-14T07:33:55.628Z,39.63
2018-12-14T07:36:24.532Z,40.10
2018-12-14T07:38:53.463Z,42.13
2018-12-14T07:41:22.367Z,37.37
2018-12-14T07:43:51.312Z,34.27
2018-12-14T07:46:20.589Z,36.20
2018-12-14T07:48:49.633Z,35.47
2018-12-14T07:51:18.429Z,34.77
2018-12-14T07:53:47.504Z,35.33
2018-12-14T07:56:16.281Z,36.50
2018-12-14T07:58:45.442Z,38.47
2018-12-14T08:01:14.696Z,34.87
2018-12-14T08:03:43.614Z,35.67
2018-12-14T08:06:12.503Z,34.57
2018-12-14T08:08:41.429Z,35.20
2018-12-14T08:11:10.439Z,36.37
2018-12-14T08:13:39.437Z,34.03
2018-12-14T08:16:08.419Z,37.70
2018-12-14T08:18:40.326Z,46.73
2018-12-14T08:21:09.294Z,42.83
2018-12-14T08:23:38.201Z,45.27
2018-12-14T08:26:07.159Z,42.67
2018-12-14T08:28:36.111Z,38.13
2018-12-14T08:31:05.040Z,38.53
2018-12-14T08:33:33.816Z,41.93
2018-12-14T08:36:02.757Z,37.80
2018-12-14T08:38:31.890Z,40.63
2018-12-14T08:41:00.780Z,41.17
2018-12-14T08:43:29.897Z,39.97
2018-12-14T08:45:58.697Z,38.80
2018-12-14T08:48:27.857Z,42.30
2018-12-14T08:50:56.758Z,41.70
2018-12-14T08:53:25.926Z,40.07
2018-12-14T08:55:55.082Z,39.73
2018-12-14T08:58:23.970Z,39.67
2018-12-14T09:00:52.919Z,39.70
2018-12-14T09:03:21.808Z,42.40
2018-12-14T09:05:50.817Z,44.23
2018-12-14T09:08:19.737Z,43.43
2018-12-14T09:10:48.657Z,43.73
2018-12-14T09:13:17.761Z,46.37
2018-12-14T09:15:46.707Z,48.97
2018-12-14T09:18:15.596Z,48.37
2018-12-14T09:20:44.502Z,52.53
2018-12-14T09:23:13.521Z,53.97
2018-12-14T09:25:42.487Z,52.87
2018-12-14T09:28:11.565Z,54.03
2018-12-14T09:30:42.841Z,55.53
2018-12-14T09:33:11.628Z,53.73
2018-12-14T09:35:40.501Z,50.83
2018-12-14T09:38:09.549Z,51.63
2018-12-14T09:40:38.565Z,50.97
2018-12-14T09:43:07.528Z,49.57
2018-12-14T09:45:36.564Z,48.00
2018-12-14T09:48:05.557Z,48.93
2018-12-14T09:50:34.571Z,48.47
2018-12-14T09:53:03.464Z,48.10
2018-12-14T09:55:32.424Z,51.07
2018-12-14T09:58:01.370Z,49.23
2018-12-14T10:00:30.269Z,47.87
2018-12-14T10:02:59.689Z,50.20
2018-12-14T10:05:28.628Z,50.93
2018-12-14T10:07:57.519Z,50.43
2018-12-14T10:10:26.366Z,50.60
2018-12-14T10:12:55.290Z,54.77
2018-12-14T10:15:24.600Z,53.47
2018-12-14T10:17:53.633Z,53.17
2018-12-14T10:20:22.861Z,56.00
2018-12-14T10:22:51.788Z,54.73
2018-12-14T10:25:20.681Z,55.20
2018-12-14T10:27:49.678Z,54.87
2018-12-14T10:30:18.603Z,56.97
2018-12-14T10:32:47.704Z,58.27
2018-12-14T10:35:16.660Z,58.50
2018-12-14T10:37:45.703Z,63.50
2018-12-14T10:40:14.634Z,62.93
2018-12-14T10:42:43.550Z,60.47
2018-12-14T10:45:12.561Z,64.43
2018-12-14T10:47:41.456Z,62.10
2018-12-14T10:50:10.381Z,67.20
2018-12-14T10:52:39.341Z,68.63
2018-12-14T10:55:08.377Z,71.77
2018-12-14T10:57:37.748Z,72.20
2018-12-14T11:00:15.648Z,74.93
2018-12-14T11:02:44.675Z,78.70
2018-12-14T11:05:13.609Z,73.47
2018-12-14T11:07:42.451Z,77.33
2018-12-14T11:10:11.617Z,81.87
2018-12-14T11:12:40.488Z,84.13
2018-12-14T11:15:09.422Z,75.40
2018-12-14T11:17:38.517Z,73.47
2018-12-14T11:20:09.209Z,73.87
2018-12-14T11:22:38.121Z,67.70
2018-12-14T11:25:07.912Z,65.27
2018-12-14T11:27:36.842Z,55.40
2018-12-14T11:30:07.575Z,57.20
2018-12-14T11:32:36.527Z,58.30
2018-12-14T11:35:05.541Z,55.77
2018-12-14T11:37:34.472Z,54.07
2018-12-14T11:40:04.915Z,53.13
2018-12-14T11:42:33.937Z,55.83
2018-12-14T11:45:03.066Z,55.47
2018-12-14T11:47:32.135Z,55.33
2018-12-14T11:50:01.059Z,54.23
2018-12-14T11:52:29.941Z,62.20
2018-12-14T11:54:58.840Z,66.63
2018-12-14T11:57:27.829Z,67.37
2018-12-14T11:59:56.873Z,64.07
2018-12-14T12:02:25.805Z,62.10
2018-12-14T12:04:54.700Z,61.20
2018-12-14T12:07:23.809Z,58.87
2018-12-14T12:09:52.741Z,58.77
2018-12-14T12:12:21.708Z,59.83
2018-12-14T12:14:50.654Z,65.50
2018-12-14T12:17:19.595Z,67.87
2018-12-14T12:19:48.505Z,70.27
2018-12-14T12:22:17.401Z,65.87
2018-12-14T12:24:46.378Z,58.80
2018-12-14T12:27:15.284Z,52.00
2018-12-14T12:29:44.202Z,52.93
2018-12-14T12:32:13.193Z,54.90
2018-12-14T12:34:42.179Z,57.07
2018-12-14T12:37:10.990Z,60.07
2018-12-14T12:39:39.873Z,58.27
2018-12-14T12:42:08.949Z,61.03
2018-12-14T12:44:37.879Z,56.40
2018-12-14T12:47:06.792Z,54.83
2018-12-14T12:49:35.786Z,59.23
2018-12-14T12:52:04.684Z,62.77
2018-12-14T12:54:33.634Z,59.47
2018-12-14T12:57:02.544Z,59.37
2018-12-14T12:59:32.016Z,56.20
2018-12-14T13:02:01.266Z,53.13
2018-12-14T13:04:30.441Z,53.57
2018-12-14T13:06:59.329Z,60.73
2018-12-14T13:09:28.267Z,43.77
2018-12-14T13:11:57.305Z,41.83
2018-12-14T13:14:26.198Z,39.67
2018-12-14T13:16:55.178Z,39.37
2018-12-14T13:19:24.112Z,38.67
2018-12-14T13:21:53.089Z,39.67
2018-12-14T13:24:22.381Z,42.23
2018-12-14T13:26:51.318Z,42.00
2018-12-14T13:29:20.558Z,38.83
2018-12-14T13:31:49.568Z,43.10
2018-12-14T13:34:18.538Z,47.13
2018-12-14T13:36:48.043Z,45.37
2018-12-14T13:39:17.809Z,44.20
2018-12-14T13:41:47.177Z,45.90
2018-12-14T13:44:16.068Z,44.20
2018-12-14T13:46:45.009Z,45.33
2018-12-14T13:49:13.899Z,47.73
2018-12-14T13:51:42.896Z,48.20
2018-12-14T13:54:11.966Z,49.93
2018-12-14T13:56:41.425Z,46.50
2018-12-14T13:59:10.512Z,49.37
2018-12-14T14:01:39.627Z,49.83
2018-12-14T14:04:08.673Z,47.40
2018-12-14T14:06:37.864Z,46.07
2018-12-14T14:09:07.017Z,57.50
2018-12-14T14:11:36.080Z,52.93
2018-12-14T14:14:05.116Z,52.20
2018-12-14T14:16:34.229Z,52.63
2018-12-14T14:19:03.208Z,50.73
2018-12-14T14:21:32.340Z,52.83
2018-12-14T14:24:01.432Z,50.77
2018-12-14T14:26:30.733Z,48.30
2018-12-14T14:28:59.841Z,43.37
2018-12-14T14:31:29.059Z,51.60
2018-12-14T14:33:58.070Z,68.63
2018-12-14T14:36:27.065Z,69.40
2018-12-14T14:38:56.656Z,71.27
2018-12-14T14:41:25.830Z,70.93
2018-12-14T14:43:55.143Z,70.03
2018-12-14T14:46:24.653Z,74.17
2018-12-14T14:48:54.314Z,74.53
2018-12-14T14:51:23.600Z,67.77
2018-12-14T14:53:53.676Z,71.27
2018-12-14T14:56:22.696Z,71.17
2018-12-14T14:58:51.600Z,72.90
2018-12-14T15:01:20.517Z,71.77
2018-12-14T15:03:49.823Z,72.13
2018-12-14T15:06:19.532Z,71.70
2018-12-14T15:08:49.898Z,75.63
2018-12-14T15:11:19.136Z,77.30
2018-12-14T15:13:48.292Z,71.83
2018-12-14T15:16:17.316Z,74.90
2018-12-14T15:18:46.401Z,74.87
2018-12-14T15:21:15.828Z,77.30
2018-12-14T15:23:44.881Z,74.40
2018-12-14T15:26:13.893Z,80.37
2018-12-14T15:28:43.931Z,79.27
2018-12-14T15:31:12.928Z,82.97
2018-12-14T15:33:41.849Z,90.37
2018-12-14T15:36:10.842Z,90.10
2018-12-14T15:38:39.736Z,87.37
2018-12-14T15:41:08.832Z,98.57
2018-12-14T15:43:37.948Z,105.00
2018-12-14T15:46:06.868Z,113.40
2018-12-14T15:48:36.019Z,109.70
2018-12-14T15:51:04.905Z,100.17
2018-12-14T15:53:34.341Z,75.33
2018-12-14T15:56:03.869Z,65.43
2018-12-14T15:58:32.976Z,65.27
2018-12-14T16:01:02.114Z,69.67
2018-12-14T16:03:31.425Z,61.00
2018-12-14T16:06:00.413Z,60.80
2018-12-14T16:08:29.519Z,66.30
2018-12-14T16:10:58.434Z,65.60
2018-12-14T16:13:27.381Z,64.23
2018-12-14T16:15:56.326Z,68.87
2018-12-14T16:18:26.544Z,73.20
2018-12-14T16:20:55.654Z,71.73
2018-12-14T16:23:25.005Z,69.17
2018-12-14T16:25:54.573Z,74.40
2018-12-14T16:28:24.142Z,88.30
2018-12-14T16:30:53.168Z,90.53
2018-12-14T16:33:22.074Z,94.00
2018-12-14T16:35:51.056Z,92.40
2018-12-14T16:38:20.285Z,89.70
2018-12-14T16:40:49.089Z,98.90
2018-12-14T16:43:18.009Z,102.83
2018-12-14T16:45:47.445Z,105.83
2018-12-14T16:48:16.544Z,107.83
2018-12-14T16:50:45.521Z,110.37
2018-12-14T16:53:14.760Z,98.97
2018-12-14T16:55:43.844Z,99.33
2018-12-14T16:58:13.085Z,90.67
2018-12-14T17:00:42.162Z,92.23
2018-12-14T17:03:11.461Z,92.43
2018-12-14T17:05:40.252Z,93.33
2018-12-14T17:08:10.065Z,92.63
2018-12-14T17:10:39.144Z,95.77
2018-12-14T17:13:08.683Z,90.70
2018-12-14T17:15:37.789Z,92.27
2018-12-14T17:18:06.726Z,99.27
2018-12-14T17:20:35.944Z,96.23
2018-12-14T17:23:04.924Z,94.93
2018-12-14T17:25:34.629Z,94.37
2018-12-14T17:28:03.965Z,96.93
2018-12-14T17:30:33.180Z,88.37
2018-12-14T17:33:02.057Z,88.03
2018-12-14T17:35:31.173Z,86.97
2018-12-14T17:38:00.161Z,88.83
2018-12-14T17:40:29.576Z,89.93
2018-12-14T17:42:58.954Z,89.80
2018-12-14T17:45:30.950Z,81.47
2018-12-14T17:48:00.083Z,80.73
2018-12-14T17:50:29.096Z,80.77
2018-12-14T17:52:59.216Z,82.17
2018-12-14T17:55:28.219Z,81.37
2018-12-14T17:57:57.260Z,79.37
2018-12-14T18:00:26.358Z,85.27
2018-12-14T18:02:56.157Z,88.27
2018-12-14T18:05:25.077Z,88.20
2018-12-14T18:07:54.041Z,90.03
2018-12-14T18:10:23.222Z,86.93
2018-12-14T18:12:52.180Z,84.77
2018-12-14T18:15:21.173Z,85.13
2018-12-14T18:17:50.211Z,81.53
2018-12-14T18:20:20.438Z,71.90
2018-12-14T18:22:49.688Z,72.57
2018-12-14T18:25:18.860Z,69.80
2018-12-14T18:27:47.787Z,57.77
2018-12-14T18:30:16.745Z,60.27
2018-12-14T18:32:45.729Z,59.87
2018-12-14T18:35:14.628Z,63.07
2018-12-14T18:37:44.226Z,59.90
2018-12-14T18:40:13.244Z,60.17
2018-12-14T18:42:42.236Z,59.47
2018-12-14T18:45:11.352Z,61.53
2018-12-14T18:47:40.447Z,61.97
2018-12-14T18:50:09.582Z,67.77
2018-12-14T18:52:38.621Z,70.77
2018-12-14T18:55:07.787Z,70.90
2018-12-14T18:57:36.729Z,70.63
2018-12-14T19:00:07.780Z,69.00
2018-12-14T19:02:36.810Z,70.80
2018-12-14T19:05:06.632Z,71.30
2018-12-14T19:07:35.642Z,75.40
2018-12-14T19:10:05.244Z,70.83
2018-12-14T19:12:35.404Z,77.63
2018-12-14T19:15:07.688Z,78.20
2018-12-14T19:17:36.692Z,76.23
2018-12-14T19:20:06.520Z,76.43
2018-12-14T19:22:35.734Z,74.27
2018-12-14T19:25:04.997Z,71.33
2018-12-14T19:27:34.506Z,67.53
2018-12-14T19:30:04.089Z,71.00
2018-12-14T19:32:33.188Z,66.70
2018-12-14T19:35:03.016Z,76.20
2018-12-14T19:37:31.928Z,76.47
2018-12-14T19:40:00.830Z,80.00
2018-12-14T19:42:29.739Z,80.60
2018-12-14T19:44:58.731Z,78.90
2018-12-14T19:47:27.773Z,79.63
2018-12-14T19:49:57.028Z,79.60
2018-12-14T19:52:26.260Z,76.97
2018-12-14T19:54:55.927Z,73.23
2018-12-14T19:57:24.916Z,66.67
2018-12-14T19:59:53.858Z,72.57
2018-12-14T20:02:22.798Z,76.40
2018-12-14T20:04:52.077Z,74.80
2018-12-14T20:07:22.149Z,74.80
2018-12-14T20:09:51.145Z,68.33
2018-12-14T20:12:20.266Z,62.30
2018-12-14T20:14:49.268Z,62.63
2018-12-14T20:17:18.251Z,62.33
2018-12-14T20:19:47.572Z,56.40
2018-12-14T20:22:17.729Z,56.20
2018-12-14T20:24:46.776Z,56.00
2018-12-14T20:27:15.661Z,57.00
2018-12-14T20:29:44.784Z,56.87
2018-12-14T20:32:13.778Z,59.60
2018-12-14T20:34:42.573Z,58.60
2018-12-14T20:37:11.574Z,66.20
2018-12-14T20:39:40.585Z,65.83
2018-12-14T20:42:10.497Z,57.83
2018-12-14T20:44:39.417Z,64.07
2018-12-14T20:47:08.413Z,65.10
2018-12-14T20:49:37.225Z,66.47
2018-12-14T20:52:06.215Z,59.63
2018-12-14T20:54:35.005Z,60.77
2018-12-14T20:57:04.038Z,60.23
2018-12-14T20:59:32.952Z,54.13
2018-12-14T21:02:01.845Z,53.20
2018-12-14T21:04:31.033Z,52.23
2018-12-14T21:06:59.935Z,46.67
2018-12-14T21:09:28.824Z,40.93
2018-12-14T21:11:57.900Z,40.73
2018-12-14T21:14:27.205Z,41.87
2018-12-14T21:16:56.098Z,41.87
2018-12-14T21:19:24.998Z,40.70
2018-12-14T21:21:54.023Z,43.73
2018-12-14T21:24:22.790Z,40.77
2018-12-14T21:26:51.585Z,42.57
2018-12-14T21:29:20.501Z,43.47
2018-12-14T21:31:49.412Z,44.47
2018-12-14T21:34:19.281Z,41.60
2018-12-14T21:36:48.178Z,41.43
2018-12-14T21:39:17.152Z,45.47
2018-12-14T21:41:45.945Z,44.73
2018-12-14T21:44:15.980Z,44.60
2018-12-14T21:46:44.892Z,46.23
2018-12-14T21:49:13.892Z,44.80
2018-12-14T21:51:42.780Z,43.20
2018-12-14T21:54:11.781Z,44.23
2018-12-14T21:56:40.569Z,39.47
2018-12-14T21:59:09.804Z,41.93
2018-12-14T22:01:38.692Z,42.70
2018-12-14T22:04:07.584Z,41.93
2018-12-14T22:06:36.988Z,41.23
2018-12-14T22:09:08.381Z,43.40
2018-12-14T22:11:37.385Z,45.17
2018-12-14T22:14:06.462Z,45.67
2018-12-14T22:16:39.179Z,44.00
2018-12-14T22:19:06.479Z,42.23
2018-12-14T22:21:35.377Z,42.37
2018-12-14T22:24:04.500Z,44.37
2018-12-14T22:26:33.576Z,43.57
2018-12-14T22:29:02.589Z,43.87
2018-12-14T22:31:31.513Z,45.47
2018-12-14T22:34:00.535Z,45.20
2018-12-14T22:36:29.497Z,46.00
2018-12-14T22:38:58.279Z,44.43
2018-12-14T22:41:27.193Z,42.67
2018-12-14T22:43:55.992Z,42.60
2018-12-14T22:46:24.956Z,41.20
2018-12-14T22:48:53.862Z,45.27
2018-12-14T22:51:22.849Z,43.17
2018-12-14T22:53:51.730Z,43.77
2018-12-14T22:56:20.673Z,45.27
2018-12-14T22:58:49.822Z,48.17
2018-12-14T23:01:18.697Z,49.70
2018-12-14T23:03:47.688Z,45.40
2018-12-14T23:06:16.853Z,46.20
2018-12-14T23:08:45.741Z,45.07
2018-12-14T23:11:14.621Z,47.07
2018-12-14T23:13:43.517Z,47.13
2018-12-14T23:16:12.633Z,48.67
2018-12-14T23:18:41.581Z,46.33
2018-12-14T23:21:10.356Z,45.53
2018-12-14T23:23:39.328Z,45.03
2018-12-14T23:26:08.261Z,47.10
2018-12-14T23:28:37.140Z,49.80
2018-12-14T23:31:06.069Z,46.17
2018-12-14T23:33:34.865Z,49.30
2018-12-14T23:36:03.778Z,46.33
2018-12-14T23:38:32.856Z,47.27
2018-12-14T23:41:01.781Z,47.43
2018-12-14T23:43:30.872Z,45.63
2018-12-14T23:45:59.767Z,46.60
2018-12-14T23:48:28.672Z,45.57
2018-12-14T23:50:57.614Z,47.80
2018-12-14T23:53:26.505Z,48.50
2018-12-14T23:55:55.416Z,47.57
2018-12-14T23:58:24.296Z,46.33
